sensor_id;sensor_type;location;lat;lon;timestamp;pressure;altitude;pressure_sealevel;temperature;humidity
63700;BME280;49845;47.130;142.766;2023-08-31T00:02:06;100428.97;;;21.78;100.00
63700;BME280;49845;47.130;142.766;2023-08-31T00:04:37;100430.13;;;22.03;100.00
63700;BME280;49845;47.130;142.766;2023-08-31T00:07:09;100424.66;;;22.20;100.00
63700;BME280;49845;47.130;142.766;2023-08-31T00:09:40;100423.13;;;22.45;100.00
63700;BME280;49845;47.130;142.766;2023-08-31T00:12:10;100423.56;;;22.51;100.00
63700;BME280;49845;47.130;142.766;2023-08-31T00:18:01;100429.97;;;22.20;100.00
63700;BME280;49845;47.130;142.766;2023-08-31T00:20:32;100436.03;;;22.08;100.00
63700;BME280;49845;47.130;142.766;2023-08-31T00:23:04;100428.22;;;21.90;100.00
63700;BME280;49845;47.130;142.766;2023-08-31T00:25:35;100434.09;;;21.81;100.00
63700;BME280;49845;47.130;142.766;2023-08-31T00:28:06;100428.59;;;21.84;100.00
63700;BME280;49845;47.130;142.766;2023-08-31T00:30:37;100423.84;;;22.04;100.00
63700;BME280;49845;47.130;142.766;2023-08-31T00:33:08;100426.16;;;22.10;100.00
63700;BME280;49845;47.130;142.766;2023-08-31T00:35:39;100428.25;;;22.05;100.00
63700;BME280;49845;47.130;142.766;2023-08-31T00:38:15;100394.47;;;21.76;100.00
63700;BME280;49845;47.130;142.766;2023-08-31T00:40:46;100423.75;;;21.91;100.00
63700;BME280;49845;47.130;142.766;2023-08-31T00:43:16;100404.28;;;21.90;100.00
63700;BME280;49845;47.130;142.766;2023-08-31T00:45:49;100395.16;;;21.94;100.00
63700;BME280;49845;47.130;142.766;2023-08-31T00:48:21;100394.78;;;22.01;100.00
63700;BME280;49845;47.130;142.766;2023-08-31T00:50:52;100407.53;;;22.10;100.00
63700;BME280;49845;47.130;142.766;2023-08-31T00:53:24;100390.78;;;22.08;100.00
63700;BME280;49845;47.130;142.766;2023-08-31T00:55:55;100395.94;;;22.25;100.00
63700;BME280;49845;47.130;142.766;2023-08-31T00:58:25;100402.38;;;22.35;100.00
63700;BME280;49845;47.130;142.766;2023-08-31T01:01:02;100403.31;;;22.49;100.00
63700;BME280;49845;47.130;142.766;2023-08-31T01:03:42;100395.72;;;22.57;100.00
63700;BME280;49845;47.130;142.766;2023-08-31T01:06:21;100372.94;;;22.66;100.00
63700;BME280;49845;47.130;142.766;2023-08-31T01:09:04;100389.19;;;22.75;100.00
63700;BME280;49845;47.130;142.766;2023-08-31T01:11:48;100384.53;;;22.79;100.00
63700;BME280;49845;47.130;142.766;2023-08-31T01:14:25;100389.19;;;22.75;100.00
63700;BME280;49845;47.130;142.766;2023-08-31T01:16:58;100381.97;;;22.63;100.00
63700;BME280;49845;47.130;142.766;2023-08-31T01:19:40;100368.47;;;22.66;100.00
63700;BME280;49845;47.130;142.766;2023-08-31T01:22:21;100386.25;;;22.93;100.00
63700;BME280;49845;47.130;142.766;2023-08-31T01:24:53;100393.13;;;22.97;100.00
63700;BME280;49845;47.130;142.766;2023-08-31T01:27:24;100385.91;;;22.99;100.00
63700;BME280;49845;47.130;142.766;2023-08-31T01:29:55;100379.41;;;23.03;100.00
63700;BME280;49845;47.130;142.766;2023-08-31T01:32:26;100377.72;;;23.15;100.00
63700;BME280;49845;47.130;142.766;2023-08-31T01:34:57;100383.41;;;23.36;100.00
63700;BME280;49845;47.130;142.766;2023-08-31T01:37:33;100389.66;;;23.49;100.00
63700;BME280;49845;47.130;142.766;2023-08-31T01:40:12;100388.25;;;23.56;100.00
63700;BME280;49845;47.130;142.766;2023-08-31T01:42:45;100380.25;;;23.56;100.00
63700;BME280;49845;47.130;142.766;2023-08-31T01:45:19;100376.63;;;23.57;100.00
63700;BME280;49845;47.130;142.766;2023-08-31T01:47:50;100381.00;;;23.58;100.00
63700;BME280;49845;47.130;142.766;2023-08-31T01:50:21;100392.41;;;23.60;100.00
63700;BME280;49845;47.130;142.766;2023-08-31T01:52:52;100385.16;;;23.62;100.00
63700;BME280;49845;47.130;142.766;2023-08-31T01:55:25;100387.84;;;23.62;100.00
63700;BME280;49845;47.130;142.766;2023-08-31T01:57:56;100349.50;;;23.38;100.00
63700;BME280;49845;47.130;142.766;2023-08-31T02:00:26;100389.84;;;23.46;100.00
63700;BME280;49845;47.130;142.766;2023-08-31T02:02:57;100381.97;;;23.44;100.00
63700;BME280;49845;47.130;142.766;2023-08-31T02:05:27;100384.16;;;23.38;100.00
63700;BME280;49845;47.130;142.766;2023-08-31T02:07:58;100381.50;;;23.25;100.00
63700;BME280;49845;47.130;142.766;2023-08-31T02:10:30;100398.94;;;23.16;100.00
63700;BME280;49845;47.130;142.766;2023-08-31T02:13:01;100396.16;;;23.05;100.00
63700;BME280;49845;47.130;142.766;2023-08-31T02:15:31;100382.47;;;22.97;100.00
63700;BME280;49845;47.130;142.766;2023-08-31T02:18:02;100385.91;;;22.99;100.00
63700;BME280;49845;47.130;142.766;2023-08-31T02:20:34;100385.91;;;22.99;100.00
63700;BME280;49845;47.130;142.766;2023-08-31T02:23:04;100371.63;;;23.00;100.00
63700;BME280;49845;47.130;142.766;2023-08-31T02:25:36;100369.28;;;23.08;100.00
63700;BME280;49845;47.130;142.766;2023-08-31T02:28:07;100386.13;;;23.09;100.00
63700;BME280;49845;47.130;142.766;2023-08-31T02:30:37;100354.47;;;23.04;100.00
63700;BME280;49845;47.130;142.766;2023-08-31T02:33:08;100369.97;;;23.24;100.00
63700;BME280;49845;47.130;142.766;2023-08-31T02:35:40;100373.59;;;23.23;100.00
63700;BME280;49845;47.130;142.766;2023-08-31T02:38:10;100339.69;;;23.25;100.00
63700;BME280;49845;47.130;142.766;2023-08-31T02:40:45;100367.25;;;23.64;100.00
63700;BME280;49845;47.130;142.766;2023-08-31T02:43:16;100347.09;;;23.86;100.00
63700;BME280;49845;47.130;142.766;2023-08-31T02:45:46;100354.03;;;24.01;100.00
63700;BME280;49845;47.130;142.766;2023-08-31T02:48:17;100353.66;;;24.19;100.00
63700;BME280;49845;47.130;142.766;2023-08-31T02:50:48;100358.84;;;24.33;100.00
63700;BME280;49845;47.130;142.766;2023-08-31T02:53:18;100365.06;;;24.46;100.00
63700;BME280;49845;47.130;142.766;2023-08-31T02:55:50;100361.25;;;24.62;100.00
63700;BME280;49845;47.130;142.766;2023-08-31T02:58:20;100370.66;;;24.67;100.00
63700;BME280;49845;47.130;142.766;2023-08-31T03:00:51;100360.47;;;24.72;100.00
63700;BME280;49845;47.130;142.766;2023-08-31T03:03:22;100356.47;;;24.78;100.00
63700;BME280;49845;47.130;142.766;2023-08-31T03:05:55;100313.38;;;24.59;100.00
63700;BME280;49845;47.130;142.766;2023-08-31T03:08:26;100349.72;;;24.85;100.00
63700;BME280;49845;47.130;142.766;2023-08-31T03:10:58;100353.41;;;24.95;100.00
63700;BME280;49845;47.130;142.766;2023-08-31T03:13:30;100266.50;;;24.54;100.00
63700;BME280;49845;47.130;142.766;2023-08-31T03:16:01;100340.84;;;25.09;100.00
63700;BME280;49845;47.130;142.766;2023-08-31T03:18:31;100341.13;;;25.17;100.00
63700;BME280;49845;47.130;142.766;2023-08-31T03:21:02;100332.41;;;25.26;100.00
63700;BME280;49845;47.130;142.766;2023-08-31T03:23:32;100341.88;;;25.30;100.00
63700;BME280;49845;47.130;142.766;2023-08-31T03:26:09;100340.94;;;25.31;100.00
63700;BME280;49845;47.130;142.766;2023-08-31T03:28:39;100337.75;;;25.26;100.00
63700;BME280;49845;47.130;142.766;2023-08-31T03:31:10;100342.03;;;25.16;100.00
63700;BME280;49845;47.130;142.766;2023-08-31T03:33:40;100328.16;;;25.11;100.00
63700;BME280;49845;47.130;142.766;2023-08-31T03:36:11;100335.63;;;25.18;100.00
63700;BME280;49845;47.130;142.766;2023-08-31T03:38:41;100337.97;;;25.23;100.00
63700;BME280;49845;47.130;142.766;2023-08-31T03:41:14;100328.50;;;25.30;100.00
63700;BME280;49845;47.130;142.766;2023-08-31T03:43:44;100327.81;;;25.39;100.00
63700;BME280;49845;47.130;142.766;2023-08-31T03:46:14;100332.81;;;25.44;100.00
63700;BME280;49845;47.130;142.766;2023-08-31T03:48:45;100322.69;;;25.36;100.00
63700;BME280;49845;47.130;142.766;2023-08-31T03:51:15;100326.56;;;25.32;100.00
63700;BME280;49845;47.130;142.766;2023-08-31T03:53:46;100320.47;;;25.19;100.00
63700;BME280;49845;47.130;142.766;2023-08-31T03:56:18;100312.63;;;25.05;100.00
63700;BME280;49845;47.130;142.766;2023-08-31T03:58:48;100318.31;;;25.00;100.00
63700;BME280;49845;47.130;142.766;2023-08-31T04:01:19;100311.44;;;25.09;100.00
63700;BME280;49845;47.130;142.766;2023-08-31T04:03:50;100295.44;;;25.20;100.00
63700;BME280;49845;47.130;142.766;2023-08-31T04:06:20;100292.06;;;25.40;100.00
63700;BME280;49845;47.130;142.766;2023-08-31T04:08:51;100277.22;;;25.48;100.00
63700;BME280;49845;47.130;142.766;2023-08-31T04:11:24;100274.09;;;25.54;100.00
63700;BME280;49845;47.130;142.766;2023-08-31T04:13:54;100272.63;;;25.61;100.00
63700;BME280;49845;47.130;142.766;2023-08-31T04:16:25;100276.88;;;25.64;100.00
63700;BME280;49845;47.130;142.766;2023-08-31T04:18:56;100280.41;;;25.64;100.00
63700;BME280;49845;47.130;142.766;2023-08-31T04:21:27;100286.97;;;25.60;100.00
63700;BME280;49845;47.130;142.766;2023-08-31T04:23:58;100283.31;;;25.50;100.00
63700;BME280;49845;47.130;142.766;2023-08-31T04:26:30;100284.75;;;25.43;100.00
63700;BME280;49845;47.130;142.766;2023-08-31T04:29:01;100263.63;;;25.39;100.00
63700;BME280;49845;47.130;142.766;2023-08-31T04:31:33;100289.66;;;25.49;100.00
63700;BME280;49845;47.130;142.766;2023-08-31T04:34:04;100281.13;;;25.44;100.00
63700;BME280;49845;47.130;142.766;2023-08-31T04:36:35;100279.63;;;25.28;100.00
63700;BME280;49845;47.130;142.766;2023-08-31T04:39:06;100262.16;;;25.00;100.00
63700;BME280;49845;47.130;142.766;2023-08-31T04:41:38;100284.66;;;24.97;100.00
63700;BME280;49845;47.130;142.766;2023-08-31T04:44:09;100284.84;;;24.83;100.00
63700;BME280;49845;47.130;142.766;2023-08-31T04:46:39;100286.50;;;24.73;100.00
63700;BME280;49845;47.130;142.766;2023-08-31T04:49:10;100281.31;;;24.59;100.00
63700;BME280;49845;47.130;142.766;2023-08-31T04:51:40;100285.34;;;24.40;100.00
63700;BME280;49845;47.130;142.766;2023-08-31T04:54:10;100283.47;;;24.29;100.00
63700;BME280;49845;47.130;142.766;2023-08-31T04:56:43;100281.56;;;24.19;100.00
63700;BME280;49845;47.130;142.766;2023-08-31T04:59:13;100292.72;;;24.13;100.00
63700;BME280;49845;47.130;142.766;2023-08-31T05:01:44;100277.34;;;24.03;100.00
63700;BME280;49845;47.130;142.766;2023-08-31T05:04:14;100275.66;;;24.02;100.00
63700;BME280;49845;47.130;142.766;2023-08-31T05:06:45;100266.91;;;24.00;100.00
63700;BME280;49845;47.130;142.766;2023-08-31T05:09:16;100239.97;;;24.03;100.00
63700;BME280;49845;47.130;142.766;2023-08-31T05:11:49;100242.25;;;24.21;100.00
63700;BME280;49845;47.130;142.766;2023-08-31T05:14:19;100231.28;;;24.49;100.00
63700;BME280;49845;47.130;142.766;2023-08-31T05:16:50;100228.75;;;24.94;100.00
63700;BME280;49845;47.130;142.766;2023-08-31T05:19:20;100210.59;;;25.33;100.00
63700;BME280;49845;47.130;142.766;2023-08-31T05:21:52;100208.75;;;25.68;100.00
63700;BME280;49845;47.130;142.766;2023-08-31T05:24:22;100220.06;;;25.94;100.00
63700;BME280;49845;47.130;142.766;2023-08-31T05:26:54;100214.94;;;26.02;100.00
63700;BME280;49845;47.130;142.766;2023-08-31T05:29:25;100218.28;;;26.15;100.00
63700;BME280;49845;47.130;142.766;2023-08-31T05:31:57;100218.81;;;26.09;100.00
63700;BME280;49845;47.130;142.766;2023-08-31T05:34:28;100217.16;;;25.97;100.00
63700;BME280;49845;47.130;142.766;2023-08-31T05:37:02;100182.13;;;25.55;100.00
63700;BME280;49845;47.130;142.766;2023-08-31T05:39:34;100219.13;;;25.61;100.00
63700;BME280;49845;47.130;142.766;2023-08-31T05:42:06;100214.97;;;25.46;100.00
63700;BME280;49845;47.130;142.766;2023-08-31T05:44:37;100206.22;;;25.21;100.00
63700;BME280;49845;47.130;142.766;2023-08-31T05:47:07;100215.88;;;25.11;100.00
63700;BME280;49845;47.130;142.766;2023-08-31T05:49:38;100209.78;;;24.97;100.00
63700;BME280;49845;47.130;142.766;2023-08-31T05:52:08;100216.09;;;24.85;100.00
63700;BME280;49845;47.130;142.766;2023-08-31T05:54:39;100213.16;;;24.77;100.00
63700;BME280;49845;47.130;142.766;2023-08-31T05:57:11;100209.50;;;24.67;100.00
63700;BME280;49845;47.130;142.766;2023-08-31T05:59:41;100217.22;;;24.59;100.00
63700;BME280;49845;47.130;142.766;2023-08-31T06:02:12;100208.44;;;24.45;100.00
63700;BME280;49845;47.130;142.766;2023-08-31T06:04:42;100209.56;;;24.30;100.00
63700;BME280;49845;47.130;142.766;2023-08-31T06:07:13;100214.53;;;24.10;100.00
63700;BME280;49845;47.130;142.766;2023-08-31T06:09:43;100202.63;;;24.03;100.00
63700;BME280;49845;47.130;142.766;2023-08-31T06:12:15;100197.28;;;24.03;100.00
63700;BME280;49845;47.130;142.766;2023-08-31T06:14:46;100191.03;;;24.16;100.00
63700;BME280;49845;47.130;142.766;2023-08-31T06:17:17;100147.06;;;24.08;100.00
63700;BME280;49845;47.130;142.766;2023-08-31T06:19:47;100183.44;;;24.46;100.00
63700;BME280;49845;47.130;142.766;2023-08-31T06:22:19;100194.06;;;24.59;100.00
63700;BME280;49845;47.130;142.766;2023-08-31T06:24:51;100179.25;;;24.66;100.00
63700;BME280;49845;47.130;142.766;2023-08-31T06:27:23;100165.75;;;24.68;100.00
63700;BME280;49845;47.130;142.766;2023-08-31T06:29:54;100163.34;;;24.65;100.00
63700;BME280;49845;47.130;142.766;2023-08-31T06:32:24;100149.38;;;24.61;100.00
63700;BME280;49845;47.130;142.766;2023-08-31T06:34:56;100148.75;;;24.58;100.00
63700;BME280;49845;47.130;142.766;2023-08-31T06:37:27;100136.03;;;24.61;100.00
63700;BME280;49845;47.130;142.766;2023-08-31T06:39:58;100135.91;;;24.74;100.00
63700;BME280;49845;47.130;142.766;2023-08-31T06:42:31;100126.22;;;24.84;100.00
63700;BME280;49845;47.130;142.766;2023-08-31T06:45:02;100140.31;;;24.97;100.00
63700;BME280;49845;47.130;142.766;2023-08-31T06:47:34;100132.78;;;25.03;100.00
63700;BME280;49845;47.130;142.766;2023-08-31T06:50:05;100116.72;;;24.80;100.00
63700;BME280;49845;47.130;142.766;2023-08-31T06:52:36;100144.66;;;24.87;100.00
63700;BME280;49845;47.130;142.766;2023-08-31T06:55:09;100147.09;;;24.79;100.00
63700;BME280;49845;47.130;142.766;2023-08-31T06:57:42;100105.00;;;24.47;100.00
63700;BME280;49845;47.130;142.766;2023-08-31T07:00:14;100154.78;;;24.48;100.00
63700;BME280;49845;47.130;142.766;2023-08-31T07:02:44;100159.56;;;24.32;100.00
63700;BME280;49845;47.130;142.766;2023-08-31T07:05:15;100155.38;;;24.17;100.00
63700;BME280;49845;47.130;142.766;2023-08-31T07:07:46;100167.41;;;23.98;100.00
63700;BME280;49845;47.130;142.766;2023-08-31T07:10:16;100150.63;;;23.72;100.00
63700;BME280;49845;47.130;142.766;2023-08-31T07:12:48;100165.94;;;23.57;100.00
63700;BME280;49845;47.130;142.766;2023-08-31T07:15:19;100172.13;;;23.45;100.00
63700;BME280;49845;47.130;142.766;2023-08-31T07:17:49;100152.22;;;23.38;100.00
63700;BME280;49845;47.130;142.766;2023-08-31T07:20:20;100142.84;;;23.32;100.00
63700;BME280;49845;47.130;142.766;2023-08-31T07:22:51;100161.38;;;23.34;100.00
63700;BME280;49845;47.130;142.766;2023-08-31T07:25:21;100152.31;;;23.23;100.00
63700;BME280;49845;47.130;142.766;2023-08-31T07:27:53;100174.19;;;23.29;100.00
63700;BME280;49845;47.130;142.766;2023-08-31T07:30:24;100151.38;;;23.24;100.00
63700;BME280;49845;47.130;142.766;2023-08-31T07:32:55;100167.59;;;23.21;100.00
63700;BME280;49845;47.130;142.766;2023-08-31T07:35:25;100159.28;;;23.13;100.00
63700;BME280;49845;47.130;142.766;2023-08-31T07:37:56;100146.81;;;23.01;100.00
63700;BME280;49845;47.130;142.766;2023-08-31T07:40:27;100156.75;;;22.99;100.00
63700;BME280;49845;47.130;142.766;2023-08-31T07:42:59;100148.38;;;22.91;100.00
63700;BME280;49845;47.130;142.766;2023-08-31T07:45:30;100143.06;;;22.78;100.00
63700;BME280;49845;47.130;142.766;2023-08-31T07:48:02;100125.56;;;22.61;100.00
63700;BME280;49845;47.130;142.766;2023-08-31T07:50:33;100131.09;;;22.58;100.00
63700;BME280;49845;47.130;142.766;2023-08-31T07:53:04;100124.28;;;22.54;100.00
63700;BME280;49845;47.130;142.766;2023-08-31T07:55:35;100124.50;;;22.51;100.00
63700;BME280;49845;47.130;142.766;2023-08-31T07:58:07;100129.81;;;22.51;100.00
63700;BME280;49845;47.130;142.766;2023-08-31T08:00:37;100136.22;;;22.48;100.00
63700;BME280;49845;47.130;142.766;2023-08-31T08:03:08;100128.75;;;22.40;100.00
63700;BME280;49845;47.130;142.766;2023-08-31T08:05:40;100126.28;;;22.37;100.00
63700;BME280;49845;47.130;142.766;2023-08-31T08:08:11;100097.50;;;22.17;100.00
63700;BME280;49845;47.130;142.766;2023-08-31T08:10:42;100118.16;;;22.26;100.00
63700;BME280;49845;47.130;142.766;2023-08-31T08:13:15;100120.66;;;22.29;100.00
63700;BME280;49845;47.130;142.766;2023-08-31T08:15:46;100112.13;;;22.24;100.00
63700;BME280;49845;47.130;142.766;2023-08-31T08:18:16;100110.41;;;22.23;100.00
63700;BME280;49845;47.130;142.766;2023-08-31T08:20:48;100105.06;;;22.23;100.00
63700;BME280;49845;47.130;142.766;2023-08-31T08:23:19;100091.19;;;22.18;100.00
63700;BME280;49845;47.130;142.766;2023-08-31T08:25:50;100093.31;;;22.13;100.00
63700;BME280;49845;47.130;142.766;2023-08-31T08:28:22;100087.44;;;22.08;100.00
63700;BME280;49845;47.130;142.766;2023-08-31T08:30:53;100093.75;;;22.07;100.00
63700;BME280;49845;47.130;142.766;2023-08-31T08:33:23;100096.59;;;22.04;100.00
63700;BME280;49845;47.130;142.766;2023-08-31T08:35:56;100108.59;;;21.96;100.00
63700;BME280;49845;47.130;142.766;2023-08-31T08:38:27;100098.38;;;21.90;100.00
63700;BME280;49845;47.130;142.766;2023-08-31T08:40:57;100097.72;;;21.87;100.00
63700;BME280;49845;47.130;142.766;2023-08-31T08:43:30;100106.00;;;21.82;100.00
63700;BME280;49845;47.130;142.766;2023-08-31T08:46:05;100101.06;;;21.76;100.00
63700;BME280;49845;47.130;142.766;2023-08-31T08:48:38;100081.66;;;21.61;100.00
63700;BME280;49845;47.130;142.766;2023-08-31T08:51:10;100093.72;;;21.67;100.00
63700;BME280;49845;47.130;142.766;2023-08-31T08:53:43;100083.25;;;21.64;100.00
63700;BME280;49845;47.130;142.766;2023-08-31T08:56:17;100072.81;;;21.61;100.00
63700;BME280;49845;47.130;142.766;2023-08-31T08:58:49;100063.16;;;21.60;100.00
63700;BME280;49845;47.130;142.766;2023-08-31T09:01:23;100073.03;;;21.58;100.00
63700;BME280;49845;47.130;142.766;2023-08-31T09:04:09;100058.44;;;21.50;100.00
63700;BME280;49845;47.130;142.766;2023-08-31T09:06:45;100057.88;;;21.45;100.00
63700;BME280;49845;47.130;142.766;2023-08-31T09:12:39;100048.22;;;21.44;100.00
63700;BME280;49845;47.130;142.766;2023-08-31T11:00:50;100037.25;;;20.79;100.00
63700;BME280;49845;47.130;142.766;2023-08-31T11:03:21;100046.97;;;20.80;100.00
63700;BME280;49845;47.130;142.766;2023-08-31T11:05:52;100024.59;;;20.70;100.00
63700;BME280;49845;47.130;142.766;2023-08-31T11:08:25;100031.88;;;20.80;100.00
63700;BME280;49845;47.130;142.766;2023-08-31T11:10:56;100030.19;;;20.79;100.00
63700;BME280;49845;47.130;142.766;2023-08-31T11:13:32;100031.03;;;20.80;100.00
63700;BME280;49845;47.130;142.766;2023-08-31T11:16:32;100036.97;;;20.83;100.00
63700;BME280;49845;47.130;142.766;2023-08-31T11:19:32;100043.16;;;20.84;100.00
63700;BME280;49845;47.130;142.766;2023-08-31T11:22:04;100036.91;;;20.85;100.00
63700;BME280;49845;47.130;142.766;2023-08-31T11:24:42;100037.09;;;20.82;100.00
63700;BME280;49845;47.130;142.766;2023-08-31T11:27:19;99987.88;;;20.76;100.00
63700;BME280;49845;47.130;142.766;2023-08-31T11:29:52;100001.25;;;20.75;100.00
63700;BME280;49845;47.130;142.766;2023-08-31T11:32:27;99995.94;;;20.75;100.00
63700;BME280;49845;47.130;142.766;2023-08-31T11:34:58;99978.63;;;20.55;100.00
63700;BME280;49845;47.130;142.766;2023-08-31T11:37:33;100012.44;;;20.80;100.00
63700;BME280;49845;47.130;142.766;2023-08-31T11:40:06;99987.78;;;20.78;100.00
63700;BME280;49845;47.130;142.766;2023-08-31T11:42:38;99998.56;;;20.89;100.00
63700;BME280;49845;47.130;142.766;2023-08-31T11:45:11;100008.81;;;20.95;100.00
63700;BME280;49845;47.130;142.766;2023-08-31T11:47:45;100015.44;;;21.02;100.00
63700;BME280;49845;47.130;142.766;2023-08-31T11:50:20;100004.41;;;21.08;100.00
63700;BME280;49845;47.130;142.766;2023-08-31T11:52:52;100022.81;;;21.11;100.00
63700;BME280;49845;47.130;142.766;2023-08-31T11:55:24;100013.13;;;21.10;100.00
63700;BME280;49845;47.130;142.766;2023-08-31T11:58:08;100020.16;;;21.11;100.00
63700;BME280;49845;47.130;142.766;2023-08-31T12:00:39;100004.19;;;21.11;100.00
63700;BME280;49845;47.130;142.766;2023-08-31T12:03:17;99968.78;;;20.84;100.00
63700;BME280;49845;47.130;142.766;2023-08-31T12:05:56;100009.72;;;21.08;100.00
63700;BME280;49845;47.130;142.766;2023-08-31T12:08:28;99960.94;;;20.82;100.00
63700;BME280;49845;47.130;142.766;2023-08-31T12:11:01;99980.63;;;21.07;100.00
63700;BME280;49845;47.130;142.766;2023-08-31T12:13:32;99942.78;;;20.89;100.00
63700;BME280;49845;47.130;142.766;2023-08-31T12:16:07;99974.25;;;21.09;100.00
63700;BME280;49845;47.130;142.766;2023-08-31T12:18:45;99942.47;;;21.08;100.00
63700;BME280;49845;47.130;142.766;2023-08-31T12:21:19;99933.66;;;21.07;100.00
63700;BME280;49845;47.130;142.766;2023-08-31T12:23:51;99942.84;;;21.29;100.00
63700;BME280;49845;47.130;142.766;2023-08-31T12:26:23;99926.72;;;21.32;100.00
63700;BME280;49845;47.130;142.766;2023-08-31T12:28:54;99930.50;;;21.42;100.00
63700;BME280;49845;47.130;142.766;2023-08-31T12:31:26;99925.81;;;21.46;100.00
63700;BME280;49845;47.130;142.766;2023-08-31T12:33:59;99921.88;;;21.51;100.00
63700;BME280;49845;47.130;142.766;2023-08-31T12:36:34;99856.94;;;21.16;100.00
63700;BME280;49845;47.130;142.766;2023-08-31T12:39:07;99924.91;;;21.60;100.00
63700;BME280;49845;47.130;142.766;2023-08-31T12:41:41;99888.19;;;21.39;100.00
63700;BME280;49845;47.130;142.766;2023-08-31T12:44:12;99920.00;;;21.66;100.00
63700;BME280;49845;47.130;142.766;2023-08-31T12:46:44;99919.81;;;21.69;100.00
63700;BME280;49845;47.130;142.766;2023-08-31T12:49:17;99920.44;;;21.73;100.00
63700;BME280;49845;47.130;142.766;2023-08-31T12:51:49;99918.31;;;21.78;100.00
63700;BME280;49845;47.130;142.766;2023-08-31T12:54:21;99907.69;;;21.78;100.00
63700;BME280;49845;47.130;142.766;2023-08-31T12:56:52;99913.00;;;21.78;100.00
63700;BME280;49845;47.130;142.766;2023-08-31T12:59:23;99903.53;;;21.74;100.00
63700;BME280;49845;47.130;142.766;2023-08-31T13:01:55;99913.22;;;21.75;100.00
63700;BME280;49845;47.130;142.766;2023-08-31T13:04:28;99901.50;;;21.65;100.00
63700;BME280;49845;47.130;142.766;2023-08-31T13:07:00;99907.78;;;21.64;100.00
63700;BME280;49845;47.130;142.766;2023-08-31T13:09:32;99908.94;;;21.60;100.00
63700;BME280;49845;47.130;142.766;2023-08-31T13:12:03;99903.63;;;21.60;100.00
63700;BME280;49845;47.130;142.766;2023-08-31T13:14:37;99900.84;;;21.61;100.00
63700;BME280;49845;47.130;142.766;2023-08-31T13:17:09;99898.00;;;21.64;100.00
63700;BME280;49845;47.130;142.766;2023-08-31T13:19:42;99895.53;;;21.74;100.00
63700;BME280;49845;47.130;142.766;2023-08-31T13:22:14;99880.88;;;21.81;100.00
63700;BME280;49845;47.130;142.766;2023-08-31T13:24:46;99863.22;;;21.93;100.00
63700;BME280;49845;47.130;142.766;2023-08-31T13:27:31;99845.75;;;21.89;100.00
63700;BME280;49845;47.130;142.766;2023-08-31T13:30:04;99769.00;;;21.59;100.00
63700;BME280;49845;47.130;142.766;2023-08-31T13:32:35;99845.84;;;22.13;100.00
63700;BME280;49845;47.130;142.766;2023-08-31T13:35:10;99824.34;;;22.16;100.00
63700;BME280;49845;47.130;142.766;2023-08-31T13:37:45;99826.91;;;22.17;100.00
63700;BME280;49845;47.130;142.766;2023-08-31T13:40:15;99830.41;;;22.18;100.00
63700;BME280;49845;47.130;142.766;2023-08-31T13:42:53;99812.78;;;22.04;100.00
63700;BME280;49845;47.130;142.766;2023-08-31T13:45:25;99818.06;;;22.17;100.00
63700;BME280;49845;47.130;142.766;2023-08-31T13:47:57;99819.75;;;22.18;100.00
63700;BME280;49845;47.130;142.766;2023-08-31T13:50:38;99818.06;;;22.17;100.00
63700;BME280;49845;47.130;142.766;2023-08-31T13:53:12;99815.28;;;22.18;100.00
63700;BME280;49845;47.130;142.766;2023-08-31T13:55:43;99796.78;;;22.17;100.00
63700;BME280;49845;47.130;142.766;2023-08-31T13:58:13;99798.28;;;22.21;100.00
63700;BME280;49845;47.130;142.766;2023-08-31T14:00:44;99801.69;;;22.23;100.00
63700;BME280;49845;47.130;142.766;2023-08-31T14:03:16;99803.59;;;22.21;100.00
63700;BME280;49845;47.130;142.766;2023-08-31T14:05:49;99813.19;;;22.24;100.00
63700;BME280;49845;47.130;142.766;2023-08-31T14:27:16;99761.44;;;22.28;100.00
63700;BME280;49845;47.130;142.766;2023-08-31T14:30:10;99766.09;;;22.37;100.00
63700;BME280;49845;47.130;142.766;2023-08-31T14:33:05;99760.13;;;22.33;100.00
63700;BME280;49845;47.130;142.766;2023-08-31T14:35:59;99763.03;;;22.30;100.00
63700;BME280;49845;47.130;142.766;2023-08-31T14:38:52;99798.66;;;22.40;100.00
63700;BME280;49845;47.130;142.766;2023-08-31T14:41:26;99805.69;;;22.42;100.00
63700;BME280;49845;47.130;142.766;2023-08-31T14:43:58;99811.03;;;22.42;100.00
63700;BME280;49845;47.130;142.766;2023-08-31T14:46:30;99821.66;;;22.42;100.00
63700;BME280;49845;47.130;142.766;2023-08-31T14:49:02;99752.34;;;21.93;100.00
63700;BME280;49845;47.130;142.766;2023-08-31T14:51:36;99836.91;;;22.39;100.00
63700;BME280;49845;47.130;142.766;2023-08-31T14:54:07;99813.88;;;22.38;100.00
63700;BME280;49845;47.130;142.766;2023-08-31T14:56:37;99803.22;;;22.38;100.00
63700;BME280;49845;47.130;142.766;2023-08-31T14:59:27;99781.19;;;22.36;100.00
63700;BME280;49845;47.130;142.766;2023-08-31T15:01:59;99775.03;;;22.36;100.00